sensor_id;sensor_type;location;lat;lon;timestamp;P1;durP1;ratioP1;P2;durP2;ratioP2
54871;SDS011;43914;57.680;11.982;2023-09-30T00:01:55;15.60;;;3.30;;
54871;SDS011;43914;57.680;11.982;2023-09-30T00:04:21;18.50;;;3.70;;
54871;SDS011;43914;57.680;11.982;2023-09-30T00:06:47;26.00;;;3.70;;
54871;SDS011;43914;57.680;11.982;2023-09-30T00:09:12;26.50;;;4.10;;
54871;SDS011;43914;57.680;11.982;2023-09-30T00:11:38;28.40;;;3.60;;
54871;SDS011;43914;57.680;11.982;2023-09-30T00:14:04;22.00;;;3.70;;
54871;SDS011;43914;57.680;11.982;2023-09-30T00:16:32;22.00;;;4.00;;
54871;SDS011;43914;57.680;11.982;2023-09-30T00:18:58;22.30;;;3.70;;
54871;SDS011;43914;57.680;11.982;2023-09-30T00:21:24;22.40;;;3.10;;
54871;SDS011;43914;57.680;11.982;2023-09-30T00:23:49;21.80;;;3.20;;
54871;SDS011;43914;57.680;11.982;2023-09-30T00:26:18;20.30;;;2.90;;
54871;SDS011;43914;57.680;11.982;2023-09-30T00:28:47;22.70;;;3.60;;
54871;SDS011;43914;57.680;11.982;2023-09-30T00:31:13;20.90;;;4.20;;
54871;SDS011;43914;57.680;11.982;2023-09-30T00:33:38;25.40;;;4.30;;
54871;SDS011;43914;57.680;11.982;2023-09-30T00:36:07;28.20;;;3.90;;
54871;SDS011;43914;57.680;11.982;2023-09-30T00:38:35;24.90;;;3.60;;
54871;SDS011;43914;57.680;11.982;2023-09-30T00:41:01;25.00;;;4.00;;
54871;SDS011;43914;57.680;11.982;2023-09-30T00:43:27;16.10;;;2.70;;
54871;SDS011;43914;57.680;11.982;2023-09-30T00:45:54;21.10;;;3.30;;
54871;SDS011;43914;57.680;11.982;2023-09-30T00:48:42;19.20;;;4.30;;
54871;SDS011;43914;57.680;11.982;2023-09-30T00:51:08;29.20;;;3.60;;
54871;SDS011;43914;57.680;11.982;2023-09-30T00:53:34;26.60;;;3.50;;
54871;SDS011;43914;57.680;11.982;2023-09-30T00:55:59;19.90;;;3.50;;
54871;SDS011;43914;57.680;11.982;2023-09-30T00:58:28;24.20;;;4.20;;
54871;SDS011;43914;57.680;11.982;2023-09-30T01:00:56;25.10;;;3.20;;
54871;SDS011;43914;57.680;11.982;2023-09-30T01:03:23;21.40;;;3.60;;
54871;SDS011;43914;57.680;11.982;2023-09-30T01:05:48;22.00;;;3.50;;
54871;SDS011;43914;57.680;11.982;2023-09-30T01:08:15;23.50;;;4.00;;
54871;SDS011;43914;57.680;11.982;2023-09-30T01:10:41;20.60;;;3.20;;
54871;SDS011;43914;57.680;11.982;2023-09-30T01:13:07;30.80;;;4.40;;
54871;SDS011;43914;57.680;11.982;2023-09-30T01:15:33;22.10;;;3.30;;
54871;SDS011;43914;57.680;11.982;2023-09-30T01:17:59;24.50;;;4.00;;
54871;SDS011;43914;57.680;11.982;2023-09-30T01:20:25;26.10;;;3.90;;
54871;SDS011;43914;57.680;11.982;2023-09-30T01:22:51;21.80;;;3.50;;
54871;SDS011;43914;57.680;11.982;2023-09-30T01:25:20;25.40;;;4.00;;
54871;SDS011;43914;57.680;11.982;2023-09-30T01:27:46;27.60;;;3.50;;
54871;SDS011;43914;57.680;11.982;2023-09-30T01:30:13;25.40;;;4.40;;
54871;SDS011;43914;57.680;11.982;2023-09-30T01:32:39;23.80;;;3.60;;
54871;SDS011;43914;57.680;11.982;2023-09-30T01:35:05;29.20;;;4.50;;
54871;SDS011;43914;57.680;11.982;2023-09-30T01:37:31;20.50;;;3.50;;
54871;SDS011;43914;57.680;11.982;2023-09-30T01:39:57;25.90;;;4.10;;
54871;SDS011;43914;57.680;11.982;2023-09-30T01:42:22;25.50;;;3.80;;
54871;SDS011;43914;57.680;11.982;2023-09-30T01:44:48;21.30;;;3.30;;
54871;SDS011;43914;57.680;11.982;2023-09-30T01:47:13;29.90;;;3.90;;
54871;SDS011;43914;57.680;11.982;2023-09-30T01:49:39;32.10;;;4.40;;
54871;SDS011;43914;57.680;11.982;2023-09-30T01:52:05;20.40;;;3.40;;
54871;SDS011;43914;57.680;11.982;2023-09-30T01:54:30;26.80;;;4.50;;
54871;SDS011;43914;57.680;11.982;2023-09-30T01:56:56;27.40;;;4.40;;
54871;SDS011;43914;57.680;11.982;2023-09-30T01:59:21;26.40;;;4.20;;
54871;SDS011;43914;57.680;11.982;2023-09-30T02:01:47;27.00;;;3.90;;
54871;SDS011;43914;57.680;11.982;2023-09-30T02:04:14;27.40;;;4.80;;
54871;SDS011;43914;57.680;11.982;2023-09-30T02:06:43;28.50;;;3.90;;
54871;SDS011;43914;57.680;11.982;2023-09-30T02:09:09;22.40;;;3.60;;
54871;SDS011;43914;57.680;11.982;2023-09-30T02:11:37;20.10;;;3.80;;
54871;SDS011;43914;57.680;11.982;2023-09-30T02:14:02;22.80;;;4.60;;
54871;SDS011;43914;57.680;11.982;2023-09-30T02:16:31;28.30;;;4.20;;
54871;SDS011;43914;57.680;11.982;2023-09-30T02:18:56;25.80;;;3.90;;
54871;SDS011;43914;57.680;11.982;2023-09-30T02:21:24;26.40;;;4.10;;
54871;SDS011;43914;57.680;11.982;2023-09-30T02:23:50;24.70;;;4.00;;
54871;SDS011;43914;57.680;11.982;2023-09-30T02:26:20;30.20;;;4.10;;
54871;SDS011;43914;57.680;11.982;2023-09-30T02:28:46;29.40;;;4.10;;
54871;SDS011;43914;57.680;11.982;2023-09-30T02:31:12;30.10;;;4.80;;
54871;SDS011;43914;57.680;11.982;2023-09-30T02:33:38;33.00;;;4.60;;
54871;SDS011;43914;57.680;11.982;2023-09-30T02:36:08;26.30;;;4.00;;
54871;SDS011;43914;57.680;11.982;2023-09-30T02:38:34;27.50;;;4.00;;
54871;SDS011;43914;57.680;11.982;2023-09-30T02:41:02;24.40;;;3.80;;
54871;SDS011;43914;57.680;11.982;2023-09-30T02:43:28;28.80;;;4.10;;
54871;SDS011;43914;57.680;11.982;2023-09-30T02:45:54;25.60;;;3.90;;
54871;SDS011;43914;57.680;11.982;2023-09-30T02:48:19;32.10;;;4.40;;
54871;SDS011;43914;57.680;11.982;2023-09-30T02:50:45;34.30;;;4.50;;
54871;SDS011;43914;57.680;11.982;2023-09-30T02:53:11;24.30;;;4.00;;
54871;SDS011;43914;57.680;11.982;2023-09-30T02:55:41;30.50;;;4.10;;
54871;SDS011;43914;57.680;11.982;2023-09-30T02:58:07;27.30;;;4.10;;
54871;SDS011;43914;57.680;11.982;2023-09-30T03:00:34;32.30;;;4.30;;
54871;SDS011;43914;57.680;11.982;2023-09-30T03:03:01;26.80;;;4.20;;
54871;SDS011;43914;57.680;11.982;2023-09-30T03:05:27;26.40;;;4.40;;
54871;SDS011;43914;57.680;11.982;2023-09-30T03:07:55;27.40;;;3.90;;
54871;SDS011;43914;57.680;11.982;2023-09-30T03:10:21;39.20;;;4.70;;
54871;SDS011;43914;57.680;11.982;2023-09-30T03:12:58;25.80;;;3.60;;
54871;SDS011;43914;57.680;11.982;2023-09-30T03:15:29;24.40;;;4.10;;
54871;SDS011;43914;57.680;11.982;2023-09-30T03:17:58;20.90;;;3.60;;
54871;SDS011;43914;57.680;11.982;2023-09-30T03:20:25;29.10;;;4.40;;
54871;SDS011;43914;57.680;11.982;2023-09-30T03:22:51;32.30;;;4.80;;
54871;SDS011;43914;57.680;11.982;2023-09-30T03:25:18;26.60;;;3.60;;
54871;SDS011;43914;57.680;11.982;2023-09-30T03:27:45;27.90;;;4.10;;
54871;SDS011;43914;57.680;11.982;2023-09-30T03:30:12;25.90;;;4.30;;
54871;SDS011;43914;57.680;11.982;2023-09-30T03:32:38;31.00;;;4.30;;
54871;SDS011;43914;57.680;11.982;2023-09-30T03:35:05;25.50;;;4.20;;
54871;SDS011;43914;57.680;11.982;2023-09-30T03:37:33;22.90;;;4.40;;
54871;SDS011;43914;57.680;11.982;2023-09-30T03:39:59;28.00;;;4.00;;
54871;SDS011;43914;57.680;11.982;2023-09-30T03:42:26;33.30;;;4.20;;
54871;SDS011;43914;57.680;11.982;2023-09-30T03:44:55;25.80;;;4.60;;
54871;SDS011;43914;57.680;11.982;2023-09-30T03:47:20;21.80;;;3.60;;
54871;SDS011;43914;57.680;11.982;2023-09-30T03:49:46;24.10;;;3.50;;
54871;SDS011;43914;57.680;11.982;2023-09-30T03:52:13;19.60;;;3.60;;
54871;SDS011;43914;57.680;11.982;2023-09-30T03:54:38;27.60;;;4.20;;
54871;SDS011;43914;57.680;11.982;2023-09-30T03:57:06;27.80;;;4.30;;
54871;SDS011;43914;57.680;11.982;2023-09-30T03:59:32;26.40;;;3.90;;
54871;SDS011;43914;57.680;11.982;2023-09-30T04:01:57;23.30;;;3.80;;
54871;SDS011;43914;57.680;11.982;2023-09-30T04:04:23;24.00;;;3.90;;
54871;SDS011;43914;57.680;11.982;2023-09-30T04:06:50;27.40;;;4.20;;
54871;SDS011;43914;57.680;11.982;2023-09-30T04:09:16;32.70;;;4.20;;
54871;SDS011;43914;57.680;11.982;2023-09-30T04:11:43;29.50;;;3.90;;
54871;SDS011;43914;57.680;11.982;2023-09-30T04:14:08;29.30;;;4.10;;
54871;SDS011;43914;57.680;11.982;2023-09-30T04:16:35;31.80;;;4.20;;
54871;SDS011;43914;57.680;11.982;2023-09-30T04:19:02;27.30;;;3.80;;
54871;SDS011;43914;57.680;11.982;2023-09-30T04:21:29;23.20;;;4.00;;
54871;SDS011;43914;57.680;11.982;2023-09-30T04:23:59;21.90;;;4.10;;
54871;SDS011;43914;57.680;11.982;2023-09-30T04:26:25;27.20;;;3.50;;
54871;SDS011;43914;57.680;11.982;2023-09-30T04:28:50;27.10;;;4.70;;
54871;SDS011;43914;57.680;11.982;2023-09-30T04:31:16;27.60;;;4.10;;
54871;SDS011;43914;57.680;11.982;2023-09-30T04:33:43;25.90;;;3.90;;
54871;SDS011;43914;57.680;11.982;2023-09-30T04:36:08;27.40;;;4.20;;
54871;SDS011;43914;57.680;11.982;2023-09-30T04:38:35;30.00;;;4.30;;
54871;SDS011;43914;57.680;11.982;2023-09-30T04:41:02;20.10;;;3.50;;
54871;SDS011;43914;57.680;11.982;2023-09-30T04:43:29;24.70;;;3.50;;
54871;SDS011;43914;57.680;11.982;2023-09-30T04:45:55;25.70;;;3.70;;
54871;SDS011;43914;57.680;11.982;2023-09-30T04:48:24;34.60;;;4.20;;
54871;SDS011;43914;57.680;11.982;2023-09-30T04:50:50;24.60;;;3.40;;
54871;SDS011;43914;57.680;11.982;2023-09-30T04:53:20;31.70;;;4.10;;
54871;SDS011;43914;57.680;11.982;2023-09-30T04:55:49;25.60;;;3.50;;
54871;SDS011;43914;57.680;11.982;2023-09-30T04:58:15;27.40;;;4.50;;
54871;SDS011;43914;57.680;11.982;2023-09-30T05:00:41;27.70;;;3.80;;
54871;SDS011;43914;57.680;11.982;2023-09-30T05:03:08;27.80;;;4.00;;
54871;SDS011;43914;57.680;11.982;2023-09-30T05:05:33;28.90;;;4.40;;
54871;SDS011;43914;57.680;11.982;2023-09-30T05:07:59;26.10;;;3.30;;
54871;SDS011;43914;57.680;11.982;2023-09-30T05:10:25;20.40;;;3.30;;
54871;SDS011;43914;57.680;11.982;2023-09-30T05:12:51;21.90;;;3.20;;
54871;SDS011;43914;57.680;11.982;2023-09-30T05:15:20;23.70;;;3.50;;
54871;SDS011;43914;57.680;11.982;2023-09-30T05:17:47;20.90;;;3.40;;
54871;SDS011;43914;57.680;11.982;2023-09-30T05:20:14;17.40;;;3.30;;
54871;SDS011;43914;57.680;11.982;2023-09-30T05:22:42;21.20;;;4.00;;
54871;SDS011;43914;57.680;11.982;2023-09-30T05:25:10;22.90;;;3.80;;
54871;SDS011;43914;57.680;11.982;2023-09-30T05:27:37;24.00;;;3.80;;
54871;SDS011;43914;57.680;11.982;2023-09-30T05:30:03;29.50;;;4.50;;
54871;SDS011;43914;57.680;11.982;2023-09-30T05:32:32;21.70;;;3.50;;
54871;SDS011;43914;57.680;11.982;2023-09-30T05:34:59;27.40;;;4.10;;
54871;SDS011;43914;57.680;11.982;2023-09-30T05:37:28;21.30;;;3.50;;
54871;SDS011;43914;57.680;11.982;2023-09-30T05:39:57;29.90;;;4.30;;
54871;SDS011;43914;57.680;11.982;2023-09-30T05:42:25;26.30;;;3.10;;
54871;SDS011;43914;57.680;11.982;2023-09-30T05:44:51;30.10;;;3.70;;
54871;SDS011;43914;57.680;11.982;2023-09-30T05:47:18;23.20;;;2.70;;
54871;SDS011;43914;57.680;11.982;2023-09-30T05:49:44;18.20;;;2.60;;
54871;SDS011;43914;57.680;11.982;2023-09-30T05:52:09;21.60;;;2.70;;
54871;SDS011;43914;57.680;11.982;2023-09-30T05:54:35;18.00;;;2.80;;
54871;SDS011;43914;57.680;11.982;2023-09-30T05:57:02;17.40;;;2.80;;
54871;SDS011;43914;57.680;11.982;2023-09-30T05:59:28;21.70;;;2.60;;
54871;SDS011;43914;57.680;11.982;2023-09-30T06:01:53;17.10;;;2.50;;
54871;SDS011;43914;57.680;11.982;2023-09-30T06:04:19;17.90;;;3.10;;
54871;SDS011;43914;57.680;11.982;2023-09-30T06:06:44;20.30;;;2.30;;
54871;SDS011;43914;57.680;11.982;2023-09-30T06:09:10;23.90;;;3.00;;
54871;SDS011;43914;57.680;11.982;2023-09-30T06:11:36;20.50;;;2.80;;
54871;SDS011;43914;57.680;11.982;2023-09-30T06:14:02;16.80;;;2.30;;
54871;SDS011;43914;57.680;11.982;2023-09-30T06:16:28;20.30;;;3.20;;
54871;SDS011;43914;57.680;11.982;2023-09-30T06:18:54;19.10;;;2.30;;
54871;SDS011;43914;57.680;11.982;2023-09-30T06:21:20;16.20;;;2.20;;
54871;SDS011;43914;57.680;11.982;2023-09-30T06:23:49;17.70;;;2.20;;
54871;SDS011;43914;57.680;11.982;2023-09-30T06:26:18;20.40;;;2.40;;
54871;SDS011;43914;57.680;11.982;2023-09-30T06:28:44;18.60;;;2.30;;
54871;SDS011;43914;57.680;11.982;2023-09-30T06:31:10;18.70;;;2.40;;
54871;SDS011;43914;57.680;11.982;2023-09-30T06:33:37;21.80;;;2.60;;
54871;SDS011;43914;57.680;11.982;2023-09-30T06:36:10;14.60;;;2.10;;
54871;SDS011;43914;57.680;11.982;2023-09-30T06:38:36;14.80;;;2.30;;
54871;SDS011;43914;57.680;11.982;2023-09-30T06:41:02;18.00;;;2.10;;
54871;SDS011;43914;57.680;11.982;2023-09-30T06:43:28;16.50;;;2.00;;
54871;SDS011;43914;57.680;11.982;2023-09-30T06:45:54;15.20;;;2.20;;
54871;SDS011;43914;57.680;11.982;2023-09-30T06:48:20;17.30;;;1.80;;
54871;SDS011;43914;57.680;11.982;2023-09-30T06:50:46;17.80;;;2.40;;
54871;SDS011;43914;57.680;11.982;2023-09-30T06:53:19;14.00;;;2.00;;
54871;SDS011;43914;57.680;11.982;2023-09-30T06:55:46;18.90;;;2.20;;
54871;SDS011;43914;57.680;11.982;2023-09-30T06:58:12;15.70;;;1.80;;
54871;SDS011;43914;57.680;11.982;2023-09-30T07:00:42;7.90;;;1.30;;
54871;SDS011;43914;57.680;11.982;2023-09-30T07:03:09;13.60;;;2.40;;
54871;SDS011;43914;57.680;11.982;2023-09-30T07:05:35;11.90;;;2.40;;
54871;SDS011;43914;57.680;11.982;2023-09-30T07:08:01;13.30;;;2.30;;
54871;SDS011;43914;57.680;11.982;2023-09-30T07:10:28;16.60;;;2.20;;
54871;SDS011;43914;57.680;11.982;2023-09-30T07:12:56;17.60;;;2.20;;
54871;SDS011;43914;57.680;11.982;2023-09-30T07:15:22;15.80;;;2.40;;
54871;SDS011;43914;57.680;11.982;2023-09-30T07:17:48;14.80;;;2.20;;
54871;SDS011;43914;57.680;11.982;2023-09-30T07:20:14;19.20;;;2.50;;
54871;SDS011;43914;57.680;11.982;2023-09-30T07:22:39;15.00;;;2.20;;
54871;SDS011;43914;57.680;11.982;2023-09-30T07:25:06;15.70;;;2.30;;
54871;SDS011;43914;57.680;11.982;2023-09-30T07:27:32;14.80;;;2.20;;
54871;SDS011;43914;57.680;11.982;2023-09-30T07:29:58;17.50;;;2.30;;
54871;SDS011;43914;57.680;11.982;2023-09-30T07:32:24;10.40;;;1.80;;
54871;SDS011;43914;57.680;11.982;2023-09-30T07:34:50;18.30;;;2.10;;
54871;SDS011;43914;57.680;11.982;2023-09-30T07:37:16;13.00;;;1.90;;
54871;SDS011;43914;57.680;11.982;2023-09-30T07:39:44;17.40;;;2.30;;
54871;SDS011;43914;57.680;11.982;2023-09-30T07:42:09;17.10;;;2.10;;
54871;SDS011;43914;57.680;11.982;2023-09-30T07:44:35;16.00;;;2.20;;
54871;SDS011;43914;57.680;11.982;2023-09-30T07:47:04;16.50;;;2.00;;
54871;SDS011;43914;57.680;11.982;2023-09-30T07:49:31;17.10;;;2.40;;
54871;SDS011;43914;57.680;11.982;2023-09-30T07:51:58;13.20;;;2.00;;
54871;SDS011;43914;57.680;11.982;2023-09-30T07:54:23;14.60;;;1.80;;
54871;SDS011;43914;57.680;11.982;2023-09-30T07:56:49;16.20;;;2.00;;
54871;SDS011;43914;57.680;11.982;2023-09-30T07:59:16;16.20;;;2.50;;
54871;SDS011;43914;57.680;11.982;2023-09-30T08:01:41;10.20;;;1.70;;
54871;SDS011;43914;57.680;11.982;2023-09-30T08:04:07;13.50;;;2.00;;
54871;SDS011;43914;57.680;11.982;2023-09-30T08:06:33;14.90;;;2.20;;
54871;SDS011;43914;57.680;11.982;2023-09-30T08:08:58;14.60;;;2.30;;
54871;SDS011;43914;57.680;11.982;2023-09-30T08:11:24;18.40;;;2.40;;
54871;SDS011;43914;57.680;11.982;2023-09-30T08:13:53;17.10;;;2.30;;
54871;SDS011;43914;57.680;11.982;2023-09-30T08:16:19;17.70;;;2.40;;
54871;SDS011;43914;57.680;11.982;2023-09-30T08:18:45;16.50;;;2.30;;
54871;SDS011;43914;57.680;11.982;2023-09-30T08:21:10;17.50;;;2.20;;
54871;SDS011;43914;57.680;11.982;2023-09-30T08:23:37;15.60;;;2.30;;
54871;SDS011;43914;57.680;11.982;2023-09-30T08:26:04;18.60;;;3.40;;
54871;SDS011;43914;57.680;11.982;2023-09-30T08:28:32;15.70;;;2.30;;
54871;SDS011;43914;57.680;11.982;2023-09-30T08:31:02;17.60;;;2.70;;
54871;SDS011;43914;57.680;11.982;2023-09-30T08:33:30;17.90;;;2.70;;
54871;SDS011;43914;57.680;11.982;2023-09-30T08:36:01;18.00;;;2.80;;
54871;SDS011;43914;57.680;11.982;2023-09-30T08:38:34;18.40;;;2.80;;
54871;SDS011;43914;57.680;11.982;2023-09-30T08:41:00;16.60;;;3.00;;
54871;SDS011;43914;57.680;11.982;2023-09-30T08:43:28;15.30;;;2.30;;
54871;SDS011;43914;57.680;11.982;2023-09-30T08:45:56;19.30;;;2.40;;
54871;SDS011;43914;57.680;11.982;2023-09-30T08:48:22;21.40;;;2.60;;
54871;SDS011;43914;57.680;11.982;2023-09-30T08:50:51;18.60;;;2.60;;
54871;SDS011;43914;57.680;11.982;2023-09-30T08:53:20;18.10;;;2.40;;
54871;SDS011;43914;57.680;11.982;2023-09-30T08:55:46;14.70;;;2.10;;
54871;SDS011;43914;57.680;11.982;2023-09-30T08:58:12;14.10;;;2.00;;
54871;SDS011;43914;57.680;11.982;2023-09-30T09:00:39;15.30;;;2.40;;
54871;SDS011;43914;57.680;11.982;2023-09-30T09:03:07;13.50;;;2.40;;
54871;SDS011;43914;57.680;11.982;2023-09-30T09:05:33;16.40;;;2.60;;
54871;SDS011;43914;57.680;11.982;2023-09-30T09:07:59;15.30;;;2.60;;
54871;SDS011;43914;57.680;11.982;2023-09-30T09:10:25;13.00;;;2.00;;
54871;SDS011;43914;57.680;11.982;2023-09-30T09:12:58;15.50;;;2.40;;
54871;SDS011;43914;57.680;11.982;2023-09-30T09:15:24;14.50;;;2.30;;
54871;SDS011;43914;57.680;11.982;2023-09-30T09:17:51;21.50;;;2.60;;
54871;SDS011;43914;57.680;11.982;2023-09-30T09:20:19;13.10;;;2.20;;
54871;SDS011;43914;57.680;11.982;2023-09-30T09:22:47;14.20;;;2.40;;
54871;SDS011;43914;57.680;11.982;2023-09-30T09:25:19;16.60;;;2.20;;
54871;SDS011;43914;57.680;11.982;2023-09-30T09:27:48;12.70;;;2.30;;
54871;SDS011;43914;57.680;11.982;2023-09-30T09:33:01;14.40;;;2.10;;
54871;SDS011;43914;57.680;11.982;2023-09-30T09:35:30;10.00;;;2.30;;
54871;SDS011;43914;57.680;11.982;2023-09-30T09:38:05;13.50;;;2.00;;
54871;SDS011;43914;57.680;11.982;2023-09-30T09:40:34;18.00;;;1.90;;
54871;SDS011;43914;57.680;11.982;2023-09-30T09:43:05;21.20;;;3.10;;
54871;SDS011;43914;57.680;11.982;2023-09-30T09:45:36;19.70;;;2.60;;
54871;SDS011;43914;57.680;11.982;2023-09-30T09:48:03;16.40;;;2.10;;
54871;SDS011;43914;57.680;11.982;2023-09-30T09:50:29;17.00;;;3.00;;
54871;SDS011;43914;57.680;11.982;2023-09-30T09:52:58;17.90;;;2.40;;
54871;SDS011;43914;57.680;11.982;2023-09-30T09:55:25;15.10;;;2.40;;
54871;SDS011;43914;57.680;11.982;2023-09-30T09:57:52;17.80;;;2.70;;
54871;SDS011;43914;57.680;11.982;2023-09-30T10:00:23;18.50;;;3.20;;
54871;SDS011;43914;57.680;11.982;2023-09-30T10:02:51;17.60;;;3.00;;
54871;SDS011;43914;57.680;11.982;2023-09-30T10:05:17;22.00;;;3.60;;
54871;SDS011;43914;57.680;11.982;2023-09-30T10:07:46;21.80;;;3.10;;
54871;SDS011;43914;57.680;11.982;2023-09-30T10:10:19;18.40;;;2.80;;
54871;SDS011;43914;57.680;11.982;2023-09-30T10:12:47;18.30;;;3.20;;
54871;SDS011;43914;57.680;11.982;2023-09-30T10:20:29;16.40;;;2.80;;
54871;SDS011;43914;57.680;11.982;2023-09-30T10:25:52;13.20;;;2.40;;
54871;SDS011;43914;57.680;11.982;2023-09-30T10:28:32;16.50;;;2.80;;
54871;SDS011;43914;57.680;11.982;2023-09-30T10:31:08;15.60;;;2.50;;
54871;SDS011;43914;57.680;11.982;2023-09-30T10:36:37;17.20;;;2.90;;
54871;SDS011;43914;57.680;11.982;2023-09-30T10:39:05;23.50;;;4.00;;
54871;SDS011;43914;57.680;11.982;2023-09-30T10:46:53;18.50;;;2.80;;
54871;SDS011;43914;57.680;11.982;2023-09-30T10:51:51;22.70;;;4.10;;
54871;SDS011;43914;57.680;11.982;2023-09-30T10:54:31;19.40;;;4.30;;
54871;SDS011;43914;57.680;11.982;2023-09-30T10:56:58;22.40;;;3.10;;
54871;SDS011;43914;57.680;11.982;2023-09-30T10:59:25;20.20;;;3.20;;
54871;SDS011;43914;57.680;11.982;2023-09-30T11:01:52;18.40;;;3.70;;
54871;SDS011;43914;57.680;11.982;2023-09-30T11:04:18;21.50;;;3.30;;
54871;SDS011;43914;57.680;11.982;2023-09-30T11:06:45;22.00;;;3.70;;
54871;SDS011;43914;57.680;11.982;2023-09-30T11:09:15;20.80;;;3.20;;
54871;SDS011;43914;57.680;11.982;2023-09-30T11:11:43;27.60;;;3.70;;
54871;SDS011;43914;57.680;11.982;2023-09-30T11:16:58;16.30;;;3.40;;
54871;SDS011;43914;57.680;11.982;2023-09-30T11:19:36;23.10;;;3.30;;
54871;SDS011;43914;57.680;11.982;2023-09-30T11:22:10;22.40;;;3.70;;
54871;SDS011;43914;57.680;11.982;2023-09-30T11:24:37;19.70;;;2.90;;
54871;SDS011;43914;57.680;11.982;2023-09-30T11:27:02;20.90;;;3.10;;
54871;SDS011;43914;57.680;11.982;2023-09-30T11:29:29;11.80;;;1.90;;
54871;SDS011;43914;57.680;11.982;2023-09-30T11:31:55;17.70;;;2.50;;
54871;SDS011;43914;57.680;11.982;2023-09-30T11:34:30;13.10;;;2.30;;
54871;SDS011;43914;57.680;11.982;2023-09-30T11:36:58;19.90;;;2.60;;
54871;SDS011;43914;57.680;11.982;2023-09-30T11:39:27;14.10;;;2.30;;
54871;SDS011;43914;57.680;11.982;2023-09-30T11:41:54;14.10;;;2.20;;
54871;SDS011;43914;57.680;11.982;2023-09-30T11:44:22;14.40;;;2.60;;
54871;SDS011;43914;57.680;11.982;2023-09-30T11:46:53;15.50;;;2.70;;
54871;SDS011;43914;57.680;11.982;2023-09-30T11:52:01;21.20;;;3.50;;
54871;SDS011;43914;57.680;11.982;2023-09-30T11:54:33;17.50;;;2.80;;
54871;SDS011;43914;57.680;11.982;2023-09-30T11:57:00;16.40;;;2.70;;
54871;SDS011;43914;57.680;11.982;2023-09-30T11:59:26;19.40;;;3.00;;
54871;SDS011;43914;57.680;11.982;2023-09-30T12:01:52;18.20;;;2.80;;
54871;SDS011;43914;57.680;11.982;2023-09-30T12:04:18;15.10;;;3.30;;
54871;SDS011;43914;57.680;11.982;2023-09-30T12:06:44;15.80;;;3.30;;
54871;SDS011;43914;57.680;11.982;2023-09-30T12:09:12;17.30;;;2.90;;
54871;SDS011;43914;57.680;11.982;2023-09-30T12:11:40;23.40;;;3.10;;
54871;SDS011;43914;57.680;11.982;2023-09-30T12:14:10;15.50;;;3.20;;
54871;SDS011;43914;57.680;11.982;2023-09-30T12:16:37;19.10;;;3.00;;
54871;SDS011;43914;57.680;11.982;2023-09-30T12:19:04;16.80;;;3.40;;
54871;SDS011;43914;57.680;11.982;2023-09-30T12:21:33;19.00;;;3.10;;
54871;SDS011;43914;57.680;11.982;2023-09-30T12:24:02;19.90;;;3.40;;
54871;SDS011;43914;57.680;11.982;2023-09-30T12:26:32;17.90;;;3.50;;
54871;SDS011;43914;57.680;11.982;2023-09-30T12:28:57;21.10;;;3.40;;
54871;SDS011;43914;57.680;11.982;2023-09-30T12:31:23;17.90;;;2.90;;
54871;SDS011;43914;57.680;11.982;2023-09-30T12:33:48;22.70;;;3.80;;
54871;SDS011;43914;57.680;11.982;2023-09-30T12:36:19;26.80;;;3.80;;
54871;SDS011;43914;57.680;11.982;2023-09-30T12:38:47;23.20;;;3.60;;
54871;SDS011;43914;57.680;11.982;2023-09-30T12:41:13;19.00;;;3.60;;
54871;SDS011;43914;57.680;11.982;2023-09-30T12:43:40;23.50;;;3.40;;
54871;SDS011;43914;57.680;11.982;2023-09-30T12:46:07;19.20;;;3.10;;
54871;SDS011;43914;57.680;11.982;2023-09-30T12:48:38;17.10;;;3.00;;
54871;SDS011;43914;57.680;11.982;2023-09-30T12:51:07;22.60;;;3.80;;
54871;SDS011;43914;57.680;11.982;2023-09-30T12:53:34;16.90;;;3.50;;
54871;SDS011;43914;57.680;11.982;2023-09-30T12:56:00;17.10;;;3.50;;
54871;SDS011;43914;57.680;11.982;2023-09-30T12:58:25;19.60;;;2.80;;
54871;SDS011;43914;57.680;11.982;2023-09-30T13:00:54;14.70;;;2.70;;
54871;SDS011;43914;57.680;11.982;2023-09-30T13:03:20;15.50;;;2.80;;
54871;SDS011;43914;57.680;11.982;2023-09-30T13:05:45;16.80;;;3.50;;
54871;SDS011;43914;57.680;11.982;2023-09-30T13:08:11;16.90;;;2.70;;
54871;SDS011;43914;57.680;11.982;2023-09-30T13:10:37;26.00;;;3.70;;
54871;SDS011;43914;57.680;11.982;2023-09-30T13:13:03;24.30;;;3.30;;
54871;SDS011;43914;57.680;11.982;2023-09-30T13:15:30;17.60;;;2.90;;
54871;SDS011;43914;57.680;11.982;2023-09-30T13:17:55;18.40;;;2.80;;
54871;SDS011;43914;57.680;11.982;2023-09-30T13:20:21;17.20;;;3.00;;
54871;SDS011;43914;57.680;11.982;2023-09-30T13:22:46;15.80;;;3.30;;
54871;SDS011;43914;57.680;11.982;2023-09-30T13:25:12;20.10;;;3.10;;
54871;SDS011;43914;57.680;11.982;2023-09-30T13:27:38;17.50;;;3.30;;
54871;SDS011;43914;57.680;11.982;2023-09-30T13:30:06;21.90;;;3.50;;
54871;SDS011;43914;57.680;11.982;2023-09-30T13:32:33;21.20;;;3.60;;
54871;SDS011;43914;57.680;11.982;2023-09-30T13:35:03;19.00;;;3.00;;
54871;SDS011;43914;57.680;11.982;2023-09-30T13:37:30;17.70;;;2.90;;
54871;SDS011;43914;57.680;11.982;2023-09-30T13:40:08;15.90;;;3.00;;
54871;SDS011;43914;57.680;11.982;2023-09-30T13:42:34;15.90;;;2.90;;
54871;SDS011;43914;57.680;11.982;2023-09-30T13:45:00;21.40;;;3.20;;
54871;SDS011;43914;57.680;11.982;2023-09-30T13:47:25;15.50;;;2.60;;
54871;SDS011;43914;57.680;11.982;2023-09-30T13:49:51;16.10;;;2.80;;
54871;SDS011;43914;57.680;11.982;2023-09-30T13:52:17;20.70;;;3.30;;
54871;SDS011;43914;57.680;11.982;2023-09-30T13:54:44;19.50;;;2.60;;
54871;SDS011;43914;57.680;11.982;2023-09-30T13:57:09;18.10;;;3.20;;
54871;SDS011;43914;57.680;11.982;2023-09-30T13:59:36;18.10;;;2.80;;
54871;SDS011;43914;57.680;11.982;2023-09-30T14:02:02;19.90;;;2.90;;
54871;SDS011;43914;57.680;11.982;2023-09-30T14:04:31;14.40;;;2.60;;
54871;SDS011;43914;57.680;11.982;2023-09-30T14:06:57;18.70;;;2.80;;
54871;SDS011;43914;57.680;11.982;2023-09-30T14:09:26;20.60;;;2.50;;
54871;SDS011;43914;57.680;11.982;2023-09-30T14:11:53;12.40;;;2.10;;
54871;SDS011;43914;57.680;11.982;2023-09-30T14:14:18;18.20;;;2.80;;
54871;SDS011;43914;57.680;11.982;2023-09-30T14:16:44;20.30;;;2.80;;
54871;SDS011;43914;57.680;11.982;2023-09-30T14:19:09;21.30;;;2.60;;
54871;SDS011;43914;57.680;11.982;2023-09-30T14:21:35;16.40;;;3.00;;
54871;SDS011;43914;57.680;11.982;2023-09-30T14:24:00;14.80;;;2.30;;
54871;SDS011;43914;57.680;11.982;2023-09-30T14:26:27;18.50;;;2.30;;
54871;SDS011;43914;57.680;11.982;2023-09-30T14:28:53;17.70;;;2.80;;
54871;SDS011;43914;57.680;11.982;2023-09-30T14:31:20;14.00;;;2.40;;
54871;SDS011;43914;57.680;11.982;2023-09-30T14:33:45;15.80;;;2.50;;
54871;SDS011;43914;57.680;11.982;2023-09-30T14:36:11;13.60;;;2.50;;
54871;SDS011;43914;57.680;11.982;2023-09-30T14:38:36;15.10;;;2.50;;
54871;SDS011;43914;57.680;11.982;2023-09-30T14:41:11;14.90;;;2.60;;
54871;SDS011;43914;57.680;11.982;2023-09-30T14:43:39;15.10;;;2.40;;
54871;SDS011;43914;57.680;11.982;2023-09-30T14:46:05;15.30;;;2.70;;
54871;SDS011;43914;57.680;11.982;2023-09-30T14:48:31;16.70;;;2.80;;